createdAt,value
2019-01-04T00:02:31.442Z,7.70
2019-01-04T00:05:12.423Z,7.17
2019-01-04T00:07:53.289Z,7.30
2019-01-04T00:10:34.686Z,7.03
2019-01-04T00:13:15.778Z,7.83
2019-01-04T00:15:56.525Z,8.57
2019-01-04T00:18:37.252Z,7.27
2019-01-04T00:21:17.826Z,8.00
2019-01-04T00:23:58.697Z,7.20
2019-01-04T00:26:39.511Z,7.43
2019-01-04T00:29:20.117Z,7.70
2019-01-04T00:32:01.238Z,6.97
2019-01-04T00:34:41.831Z,7.50
2019-01-04T00:37:22.438Z,7.40
2019-01-04T00:40:03.205Z,7.50
2019-01-04T00:42:44.268Z,7.37
2019-01-04T00:45:24.855Z,7.83
2019-01-04T00:48:05.844Z,8.00
2019-01-04T00:50:47.153Z,8.53
2019-01-04T00:53:27.824Z,8.10
2019-01-04T00:56:08.718Z,8.30
2019-01-04T00:58:51.012Z,7.90
2019-01-04T01:01:31.813Z,8.17
2019-01-04T01:04:12.521Z,8.40
2019-01-04T01:06:53.384Z,8.17
2019-01-04T01:09:34.620Z,8.83
2019-01-04T01:12:15.568Z,9.13
2019-01-04T01:14:55.925Z,8.90
2019-01-04T01:17:36.944Z,8.43
2019-01-04T01:20:17.482Z,10.00
2019-01-04T01:22:58.317Z,9.13
2019-01-04T01:25:38.776Z,9.70
2019-01-04T01:28:19.743Z,8.77
2019-01-04T01:31:00.307Z,8.73
2019-01-04T01:33:41.452Z,8.43
2019-01-04T01:36:22.037Z,8.80
2019-01-04T01:39:04.112Z,9.03
2019-01-04T01:41:45.094Z,9.33
2019-01-04T01:44:25.610Z,8.73
2019-01-04T01:47:06.508Z,10.73
2019-01-04T01:49:48.098Z,10.03
2019-01-04T01:52:28.823Z,11.40
2019-01-04T01:55:09.506Z,12.00
2019-01-04T01:57:50.309Z,11.30
2019-01-04T02:00:31.046Z,11.83
2019-01-04T02:03:11.975Z,13.43
2019-01-04T02:05:53.100Z,12.90
2019-01-04T02:08:33.862Z,13.53
2019-01-04T02:11:14.857Z,12.87
2019-01-04T02:13:55.312Z,14.73
2019-01-04T02:16:35.926Z,14.60
2019-01-04T02:19:17.191Z,15.50
2019-01-04T02:21:57.905Z,15.53
2019-01-04T02:24:39.433Z,17.43
2019-01-04T02:27:20.613Z,16.87
2019-01-04T02:30:01.919Z,17.40
2019-01-04T02:32:42.545Z,18.97
2019-01-04T02:35:23.682Z,17.73
2019-01-04T02:38:02.909Z,17.00
2019-01-04T02:40:51.063Z,17.40
2019-01-04T02:43:39.392Z,17.07
2019-01-04T02:46:27.528Z,17.53
2019-01-04T02:49:15.680Z,17.67
2019-01-04T02:52:03.825Z,18.03
2019-01-04T02:55:11.290Z,19.27
2019-01-04T02:57:59.882Z,17.27
2019-01-04T03:00:48.114Z,17.50
2019-01-04T03:03:36.207Z,20.37
2019-01-04T03:06:24.365Z,19.33
2019-01-04T03:09:13.159Z,19.20
2019-01-04T03:12:01.209Z,18.93
2019-01-04T03:14:49.341Z,19.83
2019-01-04T03:17:37.805Z,19.53
2019-01-04T03:20:25.846Z,19.10
2019-01-04T03:23:13.971Z,19.43
2019-01-04T03:26:02.040Z,19.43
2019-01-04T03:28:50.488Z,19.03
2019-01-04T03:31:38.695Z,18.43
2019-01-04T03:34:26.777Z,20.53
2019-01-04T03:37:07.761Z,19.93
2019-01-04T03:39:48.473Z,19.90
2019-01-04T03:42:29.038Z,21.00
2019-01-04T03:45:09.679Z,19.93
2019-01-04T03:47:50.332Z,20.17
2019-01-04T03:50:31.230Z,19.77
2019-01-04T03:53:12.556Z,20.40
2019-01-04T03:55:53.206Z,19.83
2019-01-04T03:58:34.819Z,20.17
2019-01-04T04:01:15.465Z,20.60
2019-01-04T04:03:56.092Z,21.43
2019-01-04T04:06:37.028Z,19.73
2019-01-04T04:09:18.290Z,20.23
2019-01-04T04:11:59.027Z,20.20
2019-01-04T04:14:39.968Z,20.43
2019-01-04T04:17:20.413Z,20.37
2019-01-04T04:20:01.830Z,20.50
2019-01-04T04:22:43.258Z,21.07
2019-01-04T04:25:24.233Z,21.13
2019-01-04T04:28:03.502Z,22.50
2019-01-04T04:30:51.628Z,23.37
2019-01-04T04:33:40.149Z,23.73
2019-01-04T04:36:28.810Z,22.47
2019-01-04T04:39:09.918Z,24.10
2019-01-04T04:41:50.829Z,23.23
2019-01-04T04:44:31.271Z,24.00
2019-01-04T04:47:12.653Z,23.60
2019-01-04T04:49:53.346Z,23.00
2019-01-04T04:52:34.795Z,22.97
2019-01-04T04:55:15.273Z,22.50
2019-01-04T04:57:57.417Z,22.30
2019-01-04T05:00:37.724Z,20.63
2019-01-04T05:03:18.878Z,20.87
2019-01-04T05:05:59.305Z,19.87
2019-01-04T05:08:40.404Z,20.33
2019-01-04T05:11:21.183Z,20.47
2019-01-04T05:14:02.193Z,19.13
2019-01-04T05:16:42.688Z,20.27
2019-01-04T05:19:23.810Z,18.73
2019-01-04T05:22:04.880Z,18.50
2019-01-04T05:24:45.510Z,18.00
2019-01-04T05:27:27.032Z,16.30
2019-01-04T05:30:07.490Z,16.57
2019-01-04T05:32:48.218Z,15.70
2019-01-04T05:35:28.815Z,16.27
2019-01-04T05:38:09.467Z,15.87
2019-01-04T05:40:50.220Z,14.23
2019-01-04T05:43:30.580Z,15.40
2019-01-04T05:46:11.402Z,14.27
2019-01-04T05:48:52.428Z,15.00
2019-01-04T05:51:33.213Z,14.63
2019-01-04T05:54:14.704Z,14.20
2019-01-04T05:56:55.287Z,14.07
2019-01-04T05:59:36.393Z,13.73
2019-01-04T06:02:17.209Z,13.93
2019-01-04T06:04:58.667Z,13.90
2019-01-04T06:07:39.657Z,13.20
2019-01-04T06:10:20.559Z,14.23
2019-01-04T06:13:01.285Z,14.27
2019-01-04T06:15:41.694Z,14.07
2019-01-04T06:18:22.609Z,15.77
2019-01-04T06:21:03.932Z,14.90
2019-01-04T06:23:44.672Z,15.43
2019-01-04T06:26:25.417Z,16.70
2019-01-04T06:29:06.159Z,15.77
2019-01-04T06:31:47.078Z,16.97
2019-01-04T06:34:28.113Z,15.30
2019-01-04T06:37:08.784Z,16.13
2019-01-04T06:39:49.352Z,20.40
2019-01-04T06:42:30.018Z,16.40
2019-01-04T06:45:10.908Z,15.90
2019-01-04T06:47:52.232Z,17.40
2019-01-04T06:50:32.709Z,15.20
2019-01-04T06:53:13.508Z,14.83
2019-01-04T06:55:55.614Z,14.87
2019-01-04T06:58:36.859Z,13.70
2019-01-04T07:01:17.485Z,18.50
2019-01-04T07:03:58.260Z,15.70
2019-01-04T07:06:38.815Z,15.13
2019-01-04T07:09:19.854Z,17.27
2019-01-04T07:12:00.505Z,15.90
2019-01-04T07:14:41.167Z,15.37
2019-01-04T07:17:22.249Z,15.00
2019-01-04T07:20:03.017Z,15.57
2019-01-04T07:22:43.753Z,16.10
2019-01-04T07:25:24.462Z,16.07
2019-01-04T07:28:05.263Z,16.00
2019-01-04T07:30:46.101Z,16.67
2019-01-04T07:33:27.063Z,16.60
2019-01-04T07:36:07.749Z,17.87
2019-01-04T07:38:48.609Z,17.57
2019-01-04T07:41:29.500Z,17.97
2019-01-04T07:44:10.118Z,17.77
2019-01-04T07:46:51.246Z,18.37
2019-01-04T07:49:32.082Z,19.00
2019-01-04T07:52:12.993Z,19.73
2019-01-04T07:54:53.419Z,22.40
2019-01-04T07:57:33.763Z,18.93
2019-01-04T08:00:14.310Z,19.87
2019-01-04T08:02:54.963Z,20.43
2019-01-04T08:05:36.151Z,20.60
2019-01-04T08:08:16.970Z,19.97
2019-01-04T08:10:58.338Z,21.23
2019-01-04T08:13:38.996Z,21.03
2019-01-04T08:16:19.436Z,20.23
2019-01-04T08:19:00.068Z,20.53
2019-01-04T08:21:40.856Z,19.63
2019-01-04T08:24:21.519Z,20.93
2019-01-04T08:27:04.092Z,19.37
2019-01-04T08:29:45.056Z,19.27
2019-01-04T08:32:25.472Z,19.83
2019-01-04T08:35:06.552Z,18.03
2019-01-04T08:37:47.371Z,17.87
2019-01-04T08:40:28.340Z,17.37
2019-01-04T08:43:09.000Z,17.20
2019-01-04T08:45:49.336Z,17.07
2019-01-04T08:48:30.105Z,18.30
2019-01-04T08:51:11.105Z,15.27
2019-01-04T08:53:52.483Z,16.63
2019-01-04T08:56:33.588Z,16.03
2019-01-04T08:59:14.227Z,14.97
2019-01-04T09:01:54.886Z,16.73
2019-01-04T09:04:35.865Z,15.37
2019-01-04T09:07:16.737Z,14.93
2019-01-04T09:09:57.662Z,14.40
2019-01-04T09:12:38.687Z,14.97
2019-01-04T09:15:19.412Z,13.57
2019-01-04T09:20:49.448Z,14.63
2019-01-04T09:23:31.030Z,15.00
2019-01-04T09:29:10.368Z,16.07
2019-01-04T09:31:50.854Z,15.37
2019-01-04T09:34:31.742Z,14.57
2019-01-04T09:37:12.440Z,15.30
2019-01-04T09:39:53.911Z,15.27
2019-01-04T09:42:34.425Z,15.43
2019-01-04T09:45:14.882Z,15.67
2019-01-04T09:47:55.874Z,13.70
2019-01-04T09:50:39.595Z,13.37
2019-01-04T09:53:21.001Z,12.77
2019-01-04T09:56:01.731Z,13.13
2019-01-04T09:58:43.012Z,13.63
2019-01-04T10:01:23.582Z,13.67
2019-01-04T10:03:52.857Z,11.50
2019-01-04T10:06:21.913Z,11.27
2019-01-04T10:08:50.972Z,11.40
2019-01-04T10:11:19.948Z,11.03
2019-01-04T10:13:49.080Z,11.43
2019-01-04T10:16:18.432Z,11.70
2019-01-04T10:18:47.730Z,11.23
2019-01-04T10:21:16.721Z,12.73
2019-01-04T10:23:46.105Z,12.17
2019-01-04T10:26:15.244Z,11.23
2019-01-04T10:28:47.200Z,12.10
2019-01-04T10:31:16.209Z,12.13
2019-01-04T10:33:45.436Z,12.13
2019-01-04T10:36:14.658Z,12.87
2019-01-04T10:38:43.702Z,13.33
2019-01-04T10:41:13.027Z,12.53
2019-01-04T10:43:42.879Z,12.93
2019-01-04T10:46:12.052Z,13.20
2019-01-04T10:48:41.934Z,12.93
2019-01-04T10:51:10.981Z,12.27
2019-01-04T10:53:39.889Z,13.50
2019-01-04T10:56:09.089Z,13.03
2019-01-04T10:58:38.323Z,13.80
2019-01-04T11:01:07.435Z,14.03
2019-01-04T11:03:36.521Z,15.17
2019-01-04T11:06:05.600Z,14.57
2019-01-04T11:08:34.704Z,15.53
2019-01-04T11:11:04.316Z,16.93
2019-01-04T11:13:33.264Z,15.33
2019-01-04T11:16:02.227Z,14.67
2019-01-04T11:18:31.242Z,14.63
2019-01-04T11:21:02.901Z,14.30
2019-01-04T11:24:28.161Z,13.63
2019-01-04T11:27:06.107Z,13.07
2019-01-04T11:30:17.553Z,12.87
2019-01-04T11:33:30.825Z,11.63
2019-01-04T11:36:23.022Z,10.67
2019-01-04T11:39:28.257Z,10.77
2019-01-04T11:42:23.624Z,11.03
2019-01-04T11:45:17.992Z,8.93
2019-01-04T11:48:11.764Z,8.30
2019-01-04T11:51:18.415Z,7.80
2019-01-04T11:53:47.388Z,6.73
2019-01-04T11:56:16.646Z,6.97
2019-01-04T11:58:45.638Z,8.03
2019-01-04T12:01:14.655Z,5.70
2019-01-04T12:04:00.124Z,6.63
2019-01-04T12:06:29.225Z,7.47
2019-01-04T12:08:58.192Z,6.67
2019-01-04T12:11:27.241Z,7.00
2019-01-04T12:13:56.477Z,6.80
2019-01-04T12:16:25.882Z,7.97
2019-01-04T12:18:54.889Z,7.63
2019-01-04T12:21:23.817Z,6.73
2019-01-04T12:23:53.052Z,7.40
2019-01-04T12:26:22.588Z,7.10
2019-01-04T12:28:52.101Z,7.43
2019-01-04T12:31:21.063Z,7.93
2019-01-04T12:33:50.400Z,6.50
2019-01-04T12:36:19.741Z,7.47
2019-01-04T12:38:48.806Z,8.20
2019-01-04T12:41:17.807Z,8.10
2019-01-04T12:43:47.950Z,7.77
2019-01-04T12:46:17.257Z,8.53
2019-01-04T12:48:46.302Z,8.23
2019-01-04T12:51:15.295Z,8.80
2019-01-04T12:53:44.544Z,8.27
2019-01-04T12:56:13.556Z,8.53
2019-01-04T12:58:42.725Z,8.93
2019-01-04T13:01:11.942Z,9.03
2019-01-04T13:03:41.139Z,9.93
2019-01-04T13:06:10.448Z,10.37
2019-01-04T13:08:39.420Z,10.37
2019-01-04T13:11:08.591Z,11.93
2019-01-04T13:13:37.579Z,12.83
2019-01-04T13:16:06.629Z,12.97
2019-01-04T13:18:35.593Z,13.07
2019-01-04T13:21:04.697Z,13.60
2019-01-04T13:23:33.799Z,14.07
2019-01-04T13:26:02.849Z,13.43
2019-01-04T13:28:31.751Z,14.33
2019-01-04T13:31:01.115Z,14.83
2019-01-04T13:33:30.149Z,15.57
2019-01-04T13:35:59.245Z,15.13
2019-01-04T13:38:29.328Z,16.13
2019-01-04T13:40:58.938Z,16.50
2019-01-04T13:43:28.422Z,16.37
2019-01-04T13:45:57.363Z,15.63
2019-01-04T13:48:26.315Z,16.67
2019-01-04T13:50:55.807Z,16.13
2019-01-04T13:53:25.095Z,15.83
2019-01-04T13:55:54.198Z,16.10
2019-01-04T13:58:23.358Z,15.97
2019-01-04T14:00:52.389Z,16.43
2019-01-04T14:03:21.547Z,16.57
2019-01-04T14:05:50.562Z,16.57
2019-01-04T14:08:19.965Z,16.60
2019-01-04T14:10:48.952Z,16.13
2019-01-04T14:13:17.965Z,17.17
2019-01-04T14:15:46.985Z,18.77
2019-01-04T14:18:16.018Z,20.20
2019-01-04T14:20:45.396Z,20.60
2019-01-04T14:23:14.379Z,19.60
2019-01-04T14:25:43.962Z,19.83
2019-01-04T14:28:13.441Z,98.80
2019-01-04T14:30:49.799Z,22.80
2019-01-04T14:33:19.004Z,20.13
2019-01-04T14:35:48.050Z,15.83
2019-01-04T14:38:17.056Z,16.80
2019-01-04T14:40:46.479Z,17.80
2019-01-04T14:43:15.989Z,17.60
2019-01-04T14:45:45.597Z,17.47
2019-01-04T14:48:14.569Z,17.63
2019-01-04T14:50:43.612Z,16.67
2019-01-04T14:53:12.629Z,16.63
2019-01-04T14:55:41.871Z,18.30
2019-01-04T14:58:10.795Z,15.23
2019-01-04T15:00:40.135Z,17.10
2019-01-04T15:03:09.422Z,16.30
2019-01-04T15:05:38.581Z,17.20
2019-01-04T15:08:07.696Z,17.67
2019-01-04T15:10:37.691Z,16.80
2019-01-04T15:13:07.133Z,17.83
2019-01-04T15:15:36.679Z,17.93
2019-01-04T15:18:05.634Z,17.77
2019-01-04T15:20:34.984Z,17.47
2019-01-04T15:23:04.274Z,18.77
2019-01-04T15:25:33.495Z,19.10
2019-01-04T15:28:03.073Z,18.47
2019-01-04T15:30:32.137Z,19.13
2019-01-04T15:33:01.584Z,21.87
2019-01-04T15:35:30.480Z,21.70
2019-01-04T15:38:00.063Z,23.40
2019-01-04T15:40:29.192Z,23.20
2019-01-04T15:42:58.461Z,32.87
2019-01-04T15:45:27.473Z,24.90
2019-01-04T15:47:56.654Z,26.43
2019-01-04T15:50:25.599Z,26.93
2019-01-04T15:52:54.857Z,28.17
2019-01-04T15:55:30.993Z,28.60
2019-01-04T15:58:05.310Z,27.17
2019-01-04T16:00:34.507Z,28.33
2019-01-04T16:03:04.330Z,29.93
2019-01-04T16:05:33.545Z,28.23
2019-01-04T16:08:02.626Z,28.57
2019-01-04T16:10:32.079Z,28.53
2019-01-04T16:13:01.186Z,28.23
2019-01-04T16:15:30.234Z,28.20
2019-01-04T16:17:59.946Z,28.63
2019-01-04T16:20:29.663Z,27.90
2019-01-04T16:22:59.291Z,28.10
2019-01-04T16:25:28.375Z,27.97
2019-01-04T16:27:57.376Z,29.07
2019-01-04T16:30:26.629Z,27.73
2019-01-04T16:32:55.865Z,30.60
2019-01-04T16:35:25.175Z,31.37
2019-01-04T16:37:54.074Z,30.27
2019-01-04T16:40:25.028Z,30.93
2019-01-04T16:42:56.190Z,32.70
2019-01-04T16:45:25.422Z,32.47
2019-01-04T16:47:56.154Z,31.93
2019-01-04T16:50:25.117Z,32.87
2019-01-04T16:52:59.447Z,32.57
2019-01-04T16:55:25.610Z,31.73
2019-01-04T16:57:54.921Z,33.77
2019-01-04T17:00:24.339Z,33.13
2019-01-04T17:02:53.635Z,30.90
2019-01-04T17:05:22.821Z,33.23
2019-01-04T17:07:52.265Z,32.17
2019-01-04T17:10:21.911Z,33.30
2019-01-04T17:12:50.938Z,32.40
2019-01-04T17:15:20.005Z,31.37
2019-01-04T17:17:50.473Z,32.97
2019-01-04T17:20:19.795Z,33.10
2019-01-04T17:22:49.290Z,31.40
2019-01-04T17:25:18.338Z,31.17
2019-01-04T17:28:05.750Z,32.37
2019-01-04T17:30:34.779Z,32.80
2019-01-04T17:33:04.282Z,31.50
2019-01-04T17:35:33.304Z,31.80
2019-01-04T17:38:02.781Z,30.63
2019-01-04T17:40:31.897Z,31.03
2019-01-04T17:43:01.229Z,31.73
2019-01-04T17:45:30.343Z,32.40
2019-01-04T17:47:59.450Z,31.10
2019-01-04T17:50:28.858Z,30.93
2019-01-04T17:52:58.029Z,29.67
2019-01-04T17:55:27.161Z,31.67
2019-01-04T17:57:56.351Z,30.03
2019-01-04T18:00:25.581Z,29.50
2019-01-04T18:03:00.671Z,29.83
2019-01-04T18:05:25.340Z,29.60
2019-01-04T18:07:54.343Z,29.57
2019-01-04T18:10:27.626Z,29.83
2019-01-04T18:12:57.289Z,29.60
2019-01-04T18:15:26.549Z,29.93
2019-01-04T18:17:58.631Z,30.90
2019-01-04T18:20:26.962Z,29.77
2019-01-04T18:22:56.761Z,30.90
2019-01-04T18:25:25.891Z,31.33
2019-01-04T18:27:54.929Z,30.40
2019-01-04T18:30:24.243Z,30.07
2019-01-04T18:32:53.948Z,29.37
2019-01-04T18:35:26.039Z,31.60
2019-01-04T18:37:55.647Z,30.13
2019-01-04T18:40:25.268Z,29.80
2019-01-04T18:42:54.376Z,31.70
2019-01-04T18:45:23.553Z,33.30
2019-01-04T18:47:52.516Z,32.07
2019-01-04T18:50:23.355Z,30.17
2019-01-04T18:52:52.745Z,29.77
2019-01-04T18:55:21.916Z,27.07
2019-01-04T18:57:51.292Z,28.57
2019-01-04T19:00:21.243Z,31.23
2019-01-04T19:02:50.826Z,28.83
2019-01-04T19:05:22.002Z,28.67
2019-01-04T19:07:51.250Z,28.27
2019-01-04T19:10:20.328Z,29.83
2019-01-04T19:12:49.765Z,29.80
2019-01-04T19:15:19.062Z,28.70
2019-01-04T19:17:48.299Z,27.27
2019-01-04T19:20:17.551Z,27.07
2019-01-04T19:22:46.873Z,27.50
2019-01-04T19:25:16.177Z,28.60
2019-01-04T19:27:48.769Z,25.80
2019-01-04T19:30:18.108Z,26.27
2019-01-04T19:32:49.214Z,26.83
2019-01-04T19:35:21.536Z,27.30
2019-01-04T19:37:55.556Z,25.40
2019-01-04T19:40:25.845Z,25.37
2019-01-04T19:42:57.313Z,26.53
2019-01-04T19:45:28.172Z,26.93
2019-01-04T19:47:57.326Z,27.13
2019-01-04T19:50:29.025Z,25.00
2019-01-04T19:53:00.904Z,24.97
2019-01-04T19:55:30.770Z,25.63
2019-01-04T19:58:05.299Z,24.33
2019-01-04T20:00:35.203Z,25.27
2019-01-04T20:03:06.604Z,24.93
2019-01-04T20:06:28.377Z,27.37
2019-01-04T20:09:38.235Z,25.53
2019-01-04T20:13:30.313Z,27.03
2019-01-04T20:16:44.109Z,25.67
2019-01-04T20:19:34.469Z,25.83
2019-01-04T20:22:32.409Z,27.57
2019-01-04T20:25:25.964Z,26.53
2019-01-04T20:28:13.621Z,27.73
2019-01-04T20:31:11.465Z,26.47
2019-01-04T20:34:02.877Z,29.33
2019-01-04T20:36:48.610Z,26.80
2019-01-04T20:39:38.584Z,25.70
2019-01-04T20:42:26.530Z,26.43
2019-01-04T20:45:25.076Z,27.93
2019-01-04T20:48:26.929Z,28.57
2019-01-04T20:51:17.787Z,28.33
2019-01-04T20:54:03.603Z,27.03
2019-01-04T20:57:08.447Z,29.33
2019-01-04T20:59:57.117Z,28.87
2019-01-04T21:02:54.135Z,29.70
2019-01-04T21:05:51.725Z,29.63
2019-01-04T21:08:41.460Z,30.73
2019-01-04T21:11:41.373Z,28.80
2019-01-04T21:14:30.913Z,30.77
2019-01-04T21:17:31.200Z,29.50
2019-01-04T21:20:22.954Z,31.30
2019-01-04T21:23:20.891Z,30.97
2019-01-04T21:26:18.956Z,30.10
2019-01-04T21:29:05.820Z,28.70
2019-01-04T21:32:09.144Z,29.33
2019-01-04T21:34:57.303Z,28.77
2019-01-04T21:37:44.624Z,28.43
2019-01-04T21:40:32.883Z,28.07
2019-01-04T21:43:19.603Z,29.97
2019-01-04T21:46:23.515Z,29.00
2019-01-04T21:49:26.797Z,29.53
2019-01-04T21:52:13.790Z,27.77
2019-01-04T21:55:00.904Z,29.20
2019-01-04T21:57:48.426Z,29.23
2019-01-04T22:00:37.319Z,29.37
2019-01-04T22:03:35.525Z,29.60
2019-01-04T22:06:33.748Z,29.50
2019-01-04T22:09:42.051Z,30.63
2019-01-04T22:12:35.587Z,30.97
2019-01-04T22:15:22.656Z,28.13
2019-01-04T22:18:20.113Z,28.40
2019-01-04T22:21:06.115Z,27.20
2019-01-04T22:23:52.787Z,26.57
2019-01-04T22:26:43.826Z,28.57
2019-01-04T22:29:21.018Z,26.27
2019-01-04T22:32:15.302Z,28.63
2019-01-04T22:35:12.773Z,27.60
2019-01-04T22:37:59.821Z,25.87
2019-01-04T22:40:53.254Z,28.63
2019-01-04T22:43:44.560Z,27.37
2019-01-04T22:46:38.857Z,28.43
2019-01-04T22:49:18.537Z,27.17
2019-01-04T22:52:24.573Z,26.73
2019-01-04T22:55:27.838Z,27.27
2019-01-04T22:58:18.460Z,26.40
2019-01-04T23:01:13.134Z,25.23
2019-01-04T23:04:00.158Z,25.70
2019-01-04T23:06:52.380Z,25.90
2019-01-04T23:09:43.367Z,27.80
2019-01-04T23:12:29.757Z,27.57
2019-01-04T23:15:27.117Z,28.13
2019-01-04T23:18:13.551Z,28.07
2019-01-04T23:20:54.343Z,27.10
2019-01-04T23:23:38.220Z,27.40
2019-01-04T23:26:37.738Z,28.07
2019-01-04T23:29:25.921Z,26.40
2019-01-04T23:32:11.958Z,27.50
2019-01-04T23:35:01.814Z,26.77
2019-01-04T23:37:59.915Z,26.67
2019-01-04T23:40:57.156Z,25.17
2019-01-04T23:43:41.108Z,27.73
2019-01-04T23:46:27.855Z,28.03
2019-01-04T23:49:28.011Z,26.90
2019-01-04T23:52:15.685Z,26.73
2019-01-04T23:54:58.820Z,25.73
2019-01-04T23:57:52.873Z,26.10
